createdAt,value
2023-03-08T00:01:55.102Z,99902.69
2023-03-08T00:06:57.339Z,99904.09
2023-03-08T00:12:00.396Z,99901.38
2023-03-08T00:17:02.891Z,99898.56
2023-03-08T00:22:05.089Z,99896.38
2023-03-08T00:27:06.694Z,99904.25
2023-03-08T00:32:08.433Z,99901.47
2023-03-08T00:37:10.077Z,99903.78
2023-03-08T00:42:12.856Z,99908.91
2023-03-08T00:47:15.582Z,99890.94
2023-03-08T00:52:17.670Z,99893.84
2023-03-08T00:57:19.350Z,99891.97
2023-03-08T01:02:21.126Z,99879.84
2023-03-08T01:07:24.084Z,99875.19
2023-03-08T01:12:25.705Z,99860.63
2023-03-08T01:17:27.879Z,99867.75
2023-03-08T01:22:29.536Z,99869.91
2023-03-08T01:27:32.399Z,99867.25
2023-03-08T01:32:34.792Z,99854.78
2023-03-08T01:37:36.720Z,99859.50
2023-03-08T01:42:40.425Z,99855.06
2023-03-08T01:47:42.041Z,99853.31
2023-03-08T01:52:59.634Z,99854.97
2023-03-08T01:58:01.410Z,99830.75
2023-03-08T02:03:10.896Z,99831.47
2023-03-08T02:08:12.777Z,99811.56
2023-03-08T02:13:16.454Z,99811.09
2023-03-08T02:18:19.296Z,99801.88
2023-03-08T02:23:23.592Z,99796.22
2023-03-08T02:28:26.808Z,99796.78
2023-03-08T02:33:28.470Z,99788.38
2023-03-08T02:38:32.288Z,99778.69
2023-03-08T02:43:34.595Z,99779.84
2023-03-08T02:48:36.556Z,99775.59
2023-03-08T02:53:38.845Z,99782.63
2023-03-08T02:58:40.531Z,99777.00
2023-03-08T03:03:43.138Z,99777.09
2023-03-08T03:08:45.096Z,99778.31
2023-03-08T03:13:47.273Z,99768.78
2023-03-08T03:18:52.659Z,99755.13
2023-03-08T03:23:55.438Z,99747.41
2023-03-08T03:29:03.711Z,99750.38
2023-03-08T03:34:09.523Z,99747.88
2023-03-08T03:39:11.898Z,99736.81
2023-03-08T03:44:15.524Z,99718.34
2023-03-08T03:49:19.557Z,99713.09
2023-03-08T03:54:22.266Z,99705.28
2023-03-08T03:59:26.771Z,99689.13
2023-03-08T04:04:29.100Z,99695.75
2023-03-08T04:09:30.930Z,99698.75
2023-03-08T04:14:41.758Z,99693.16
2023-03-08T04:19:49.829Z,99679.28
2023-03-08T04:24:52.578Z,99682.38
2023-03-08T04:30:04.557Z,99677.28
2023-03-08T04:35:07.433Z,99661.81
2023-03-08T04:40:13.272Z,99652.03
2023-03-08T04:45:31.230Z,99647.66
2023-03-08T04:50:35.571Z,99634.31
2023-03-08T04:55:38.137Z,99635.59
2023-03-08T05:00:40.470Z,99621.56
2023-03-08T05:05:52.090Z,99619.06
2023-03-08T05:11:01.303Z,99608.53
2023-03-08T05:16:08.378Z,99594.19
2023-03-08T05:21:16.113Z,99587.06
2023-03-08T05:26:19.351Z,99570.56
2023-03-08T05:31:23.038Z,99565.28
2023-03-08T05:36:27.524Z,99553.06
2023-03-08T05:41:31.970Z,99555.09
2023-03-08T05:46:35.195Z,99535.59
2023-03-08T05:51:37.919Z,99533.06
2023-03-08T05:56:40.272Z,99528.63
2023-03-08T06:01:48.892Z,99523.88
2023-03-08T06:07:01.086Z,99523.06
2023-03-08T06:12:09.185Z,99520.81
2023-03-08T06:17:11.455Z,99514.91
2023-03-08T06:22:17.809Z,99521.09
2023-03-08T06:27:20.679Z,99515.31
2023-03-08T06:32:24.259Z,99511.69
2023-03-08T06:37:26.922Z,99512.69
2023-03-08T06:42:40.629Z,99520.75
2023-03-08T06:47:45.230Z,99512.94
2023-03-08T06:52:48.151Z,99511.19
2023-03-08T06:57:55.577Z,99508.00
2023-03-08T07:02:57.210Z,99513.63
2023-03-08T07:07:58.861Z,99504.84
2023-03-08T07:13:00.710Z,99504.84
2023-03-08T07:18:02.307Z,99492.59
2023-03-08T07:23:04.213Z,99490.78
2023-03-08T07:28:06.134Z,99489.88
2023-03-08T07:33:07.754Z,99484.00
2023-03-08T07:38:14.860Z,99478.13
2023-03-08T07:43:16.533Z,99470.16
2023-03-08T07:48:29.968Z,99472.09
2023-03-08T07:53:31.697Z,99467.00
2023-03-08T07:58:33.418Z,99467.50
2023-03-08T08:03:35.128Z,99457.31
2023-03-08T08:08:36.825Z,99448.25
2023-03-08T08:13:38.490Z,99447.19
2023-03-08T08:18:40.415Z,99453.84
2023-03-08T08:24:05.067Z,99442.19
2023-03-08T08:29:07.997Z,99432.00
2023-03-08T08:34:18.357Z,99437.28
2023-03-08T08:39:27.020Z,99437.28
2023-03-08T08:44:28.759Z,99437.28
2023-03-08T08:49:30.381Z,99440.84
2023-03-08T08:54:33.843Z,99425.06
2023-03-08T08:59:35.625Z,99411.63
2023-03-08T09:04:37.332Z,99414.69
2023-03-08T09:09:38.986Z,99407.19
2023-03-08T09:14:40.633Z,99401.56
2023-03-08T09:19:42.349Z,99400.34
2023-03-08T09:24:45.867Z,99393.41
2023-03-08T09:29:47.477Z,99386.91
2023-03-08T09:34:49.241Z,99390.25
2023-03-08T09:39:51.753Z,99384.50
2023-03-08T09:45:21.297Z,99382.19
2023-03-08T09:50:33.532Z,99374.06
2023-03-08T09:55:44.597Z,99364.16
2023-03-08T10:00:46.899Z,99372.00
2023-03-08T10:06:17.056Z,99365.50
2023-03-08T10:11:28.612Z,99355.56
2023-03-08T10:16:45.594Z,99360.28
2023-03-08T10:21:48.056Z,99352.78
2023-03-08T10:26:49.718Z,99333.13
2023-03-08T10:31:51.449Z,99326.22
2023-03-08T10:36:58.630Z,99307.34
2023-03-08T10:42:06.339Z,99297.56
2023-03-08T10:47:17.213Z,99287.91
2023-03-08T10:52:29.019Z,99315.78
2023-03-08T10:57:31.287Z,99331.63
2023-03-08T11:02:33.157Z,99340.41
2023-03-08T11:07:35.531Z,99355.25
2023-03-08T11:12:37.882Z,99363.78
2023-03-08T11:17:47.574Z,99373.97
2023-03-08T11:23:12.247Z,99344.25
2023-03-08T11:28:29.588Z,99314.50
2023-03-08T11:33:37.559Z,99304.59
2023-03-08T11:38:39.661Z,99291.47
2023-03-08T11:44:09.414Z,99305.06
2023-03-08T11:49:13.712Z,99318.19
2023-03-08T11:54:33.914Z,99302.16
2023-03-08T11:59:40.006Z,99311.44
2023-03-08T12:05:09.205Z,99309.13
2023-03-08T12:10:13.766Z,99296.44
2023-03-08T12:15:26.731Z,99287.44
2023-03-08T12:20:35.282Z,99284.13
2023-03-08T12:25:40.604Z,99291.63
2023-03-08T12:30:51.142Z,99298.03
2023-03-08T12:36:01.582Z,99297.44
2023-03-08T12:41:05.444Z,99304.94
2023-03-08T12:46:09.964Z,99301.53
2023-03-08T12:51:14.678Z,99314.22
2023-03-08T12:56:29.805Z,99308.31
2023-03-08T13:01:40.356Z,99321.53
2023-03-08T13:07:06.480Z,99322.09
2023-03-08T13:12:16.895Z,99314.59
2023-03-08T13:17:30.500Z,99299.75
2023-03-08T13:22:55.355Z,99292.75
2023-03-08T13:28:13.366Z,99281.41
2023-03-08T13:33:36.644Z,99274.72
2023-03-08T13:38:38.347Z,99269.88
2023-03-08T13:43:39.969Z,99269.09
2023-03-08T13:48:44.299Z,99268.34
2023-03-08T13:53:46.741Z,99269.28
2023-03-08T13:58:50.662Z,99281.84
2023-03-08T14:03:56.181Z,99271.22
2023-03-08T14:09:03.757Z,99293.16
2023-03-08T14:14:10.502Z,99274.75
2023-03-08T14:19:15.264Z,99271.28
2023-03-08T14:24:24.229Z,99256.72
2023-03-08T14:29:36.593Z,99243.22
2023-03-08T14:34:46.506Z,99251.41
2023-03-08T14:39:52.114Z,99253.31
2023-03-08T14:45:00.165Z,99256.19
2023-03-08T14:50:20.207Z,99244.97
2023-03-08T14:55:26.806Z,99251.00
2023-03-08T15:00:29.835Z,99252.84
2023-03-08T15:05:31.957Z,99251.91
2023-03-08T15:10:39.973Z,99241.94
2023-03-08T15:15:42.138Z,99229.06
2023-03-08T15:20:46.171Z,99234.59
2023-03-08T15:25:48.259Z,99229.38
2023-03-08T15:30:52.896Z,99236.28
2023-03-08T15:35:54.885Z,99229.13
2023-03-08T15:40:56.548Z,99225.13
2023-03-08T15:45:58.216Z,99210.72
2023-03-08T15:51:00.096Z,99227.13
2023-03-08T15:56:01.772Z,99231.13
2023-03-08T16:01:05.015Z,99229.00
2023-03-08T16:06:10.983Z,99223.56
2023-03-08T16:11:16.029Z,99222.91
2023-03-08T16:16:18.314Z,99227.63
2023-03-08T16:21:20.045Z,99224.91
2023-03-08T16:26:21.921Z,99218.25
2023-03-08T16:31:23.816Z,99226.22
2023-03-08T16:36:25.559Z,99208.00
2023-03-08T16:41:29.307Z,99207.22
2023-03-08T16:46:30.988Z,99207.88
2023-03-08T16:51:32.789Z,99193.66
2023-03-08T16:56:34.681Z,99200.22
2023-03-08T17:01:36.314Z,99197.53
2023-03-08T17:06:39.084Z,99189.84
2023-03-08T17:11:42.485Z,99197.84
2023-03-08T17:16:44.190Z,99193.88
2023-03-08T17:21:45.933Z,99193.34
2023-03-08T17:26:50.739Z,99185.28
2023-03-08T17:31:52.574Z,99195.56
2023-03-08T17:36:54.332Z,99197.75
2023-03-08T17:41:56.036Z,99210.97
2023-03-08T17:46:57.710Z,99214.69
2023-03-08T17:51:59.602Z,99198.84
2023-03-08T17:57:01.444Z,99201.56
2023-03-08T18:02:03.257Z,99203.59
2023-03-08T18:07:06.015Z,99204.06
2023-03-08T18:12:11.655Z,99194.91
2023-03-08T18:17:13.343Z,99191.34
2023-03-08T18:22:15.644Z,99195.78
2023-03-08T18:27:17.303Z,99200.66
2023-03-08T18:32:19.060Z,99185.03
2023-03-08T18:37:20.747Z,99179.13
2023-03-08T18:42:22.402Z,99176.19
2023-03-08T18:47:24.094Z,99172.69
2023-03-08T18:52:25.860Z,99164.22
2023-03-08T18:57:27.479Z,99156.22
2023-03-08T19:02:29.264Z,99156.84
2023-03-08T19:07:31.002Z,99152.53
2023-03-08T19:12:33.736Z,99152.75
2023-03-08T19:17:35.561Z,99154.47
2023-03-08T19:22:37.967Z,99160.97
2023-03-08T19:27:39.606Z,99163.56
2023-03-08T19:32:42.723Z,99170.91
2023-03-08T19:37:44.522Z,99170.91
2023-03-08T19:42:46.316Z,99169.41
2023-03-08T19:47:49.516Z,99174.78
2023-03-08T19:52:51.181Z,99173.53
2023-03-08T19:57:52.829Z,99169.50
2023-03-08T20:02:54.711Z,99172.91
2023-03-08T20:07:56.324Z,99168.50
2023-03-08T20:12:58.018Z,99159.91
2023-03-08T20:17:59.892Z,99154.50
2023-03-08T20:23:01.534Z,99150.16
2023-03-08T20:28:03.429Z,99155.94
2023-03-08T20:33:05.554Z,99159.25
2023-03-08T20:38:07.228Z,99158.78
2023-03-08T20:43:11.016Z,99167.31
2023-03-08T20:48:12.602Z,99170.88
2023-03-08T20:53:14.623Z,99169.38
2023-03-08T20:58:16.241Z,99158.91
2023-03-08T21:03:18.107Z,99167.03
2023-03-08T21:08:20.039Z,99160.09
2023-03-08T21:13:21.687Z,99153.09
2023-03-08T21:18:23.369Z,99161.41
2023-03-08T21:23:25.572Z,99170.75
2023-03-08T21:28:27.216Z,99153.47
2023-03-08T21:33:28.839Z,99153.00
2023-03-08T21:38:30.529Z,99143.47
2023-03-08T21:43:32.293Z,99146.84
2023-03-08T21:48:34.038Z,99138.22
2023-03-08T21:53:35.811Z,99152.84
2023-03-08T21:58:37.992Z,99147.59
2023-03-08T22:03:39.873Z,99156.22
2023-03-08T22:08:41.569Z,99157.56
2023-03-08T22:13:43.408Z,99164.84
2023-03-08T22:18:45.932Z,99175.25
2023-03-08T22:23:55.523Z,99169.28
2023-03-08T22:28:57.269Z,99159.63
2023-03-08T22:33:58.911Z,99147.22
2023-03-08T22:39:00.547Z,99153.69
2023-03-08T22:44:04.120Z,99134.84
2023-03-08T22:49:07.290Z,99147.00
2023-03-08T22:54:15.729Z,99169.47
2023-03-08T22:59:17.827Z,99179.34
2023-03-08T23:04:20.237Z,99173.72
2023-03-08T23:09:22.293Z,99146.72
2023-03-08T23:14:23.992Z,99133.00
2023-03-08T23:19:25.813Z,99147.09
2023-03-08T23:24:27.425Z,99165.84
2023-03-08T23:29:29.154Z,99167.22
2023-03-08T23:34:30.820Z,99164.38
2023-03-08T23:39:34.029Z,99159.13
2023-03-08T23:44:35.837Z,99141.06
2023-03-08T23:49:37.593Z,99144.16
2023-03-08T23:54:39.346Z,99145.69
2023-03-08T23:59:40.988Z,99144.69
